Time;durP1;ratioP1;P1;durP2;ratioP2;P2;SDS_P1;SDS_P2;PMS_P1;PMS_P2;Temp;Humidity;BMP_temperature;BMP_pressure;BME280_temperature;BME280_humidity;BME280_pressure;Samples;Min_cycle;Max_cycle;Signal;HPM_P1;HPM_P2
2022/04/01 00:01:32;;;;;;;2.15;1.00;;;0.60;99.90;;;;;;5092638;28;20391;-70
2022/04/01 00:03:57;;;;;;;3.35;2.03;;;0.70;99.90;;;;;;5071833;28;20051;-71
2022/04/01 00:06:23;;;;;;;2.65;0.93;;;0.70;99.90;;;;;;5074760;28;20345;-70
2022/04/01 00:08:49;;;;;;;2.97;1.63;;;0.60;99.90;;;;;;5092536;28;20048;-70
2022/04/01 00:11:14;;;;;;;2.35;0.90;;;0.90;99.90;;;;;;5073632;28;20044;-70
2022/04/01 00:13:40;;;;;;;6.82;1.65;;;0.70;99.90;;;;;;5074422;28;20079;-70
2022/04/01 00:16:06;;;;;;;2.97;0.90;;;0.70;99.90;;;;;;5092068;28;20040;-71
2022/04/01 00:18:31;;;;;;;2.25;1.08;;;0.90;99.90;;;;;;5073432;28;20410;-69
2022/04/01 00:20:57;;;;;;;2.60;1.00;;;0.70;99.90;;;;;;5074086;28;20390;-70
2022/04/01 00:23:22;;;;;;;1.52;0.98;;;0.60;99.90;;;;;;5073680;28;20054;-71
2022/04/01 00:25:48;;;;;;;1.58;0.90;;;0.60;99.90;;;;;;5073781;28;20060;-70
2022/04/01 00:28:13;;;;;;;2.05;1.17;;;0.70;99.90;;;;;;5091985;28;20056;-70
2022/04/01 00:30:39;;;;;;;2.63;1.20;;;0.90;99.90;;;;;;5073492;28;20474;-70
2022/04/01 00:33:05;;;;;;;1.20;0.90;;;0.80;99.90;;;;;;5073856;28;20536;-71
2022/04/01 00:35:32;;;;;;;2.05;1.20;;;0.60;99.90;;;;;;5074086;28;20043;-70
2022/04/01 00:37:57;;;;;;;2.33;1.30;;;0.60;99.90;;;;;;5072963;28;20048;-70
2022/04/01 00:40:23;;;;;;;2.70;1.27;;;0.70;99.90;;;;;;5074162;28;20479;-71
2022/04/01 00:42:49;;;;;;;1.85;1.05;;;0.70;99.90;;;;;;5094533;28;20044;-71
2022/04/01 00:45:16;;;;;;;1.15;1.00;;;0.60;99.90;;;;;;5082588;28;20152;-70
2022/04/01 00:47:45;;;;;;;4.68;1.67;;;0.60;99.90;;;;;;5091671;28;20038;-70
2022/04/01 00:50:10;;;;;;;4.38;1.40;;;0.70;99.90;;;;;;5091836;28;20085;-70
2022/04/01 00:52:37;;;;;;;2.08;1.38;;;0.70;99.90;;;;;;5073134;28;20509;-70
2022/04/01 00:55:08;;;;;;;2.97;1.13;;;0.70;99.90;;;;;;5091663;28;20044;-71
2022/04/01 00:57:36;;;;;;;2.70;1.02;;;0.70;99.90;;;;;;5073543;28;20501;-70
2022/04/01 01:00:03;;;;;;;2.08;1.17;;;1.00;99.90;;;;;;5072464;28;20075;-70
2022/04/01 01:02:29;;;;;;;5.90;1.58;;;0.70;99.90;;;;;;5091950;28;20047;-70
2022/04/01 01:04:54;;;;;;;4.05;1.48;;;0.70;99.90;;;;;;5073299;28;20048;-70
2022/04/01 01:07:20;;;;;;;1.90;1.05;;;0.80;99.90;;;;;;5072996;28;20080;-70
2022/04/01 01:09:46;;;;;;;3.42;1.35;;;0.80;99.90;;;;;;5091626;28;20040;-70
2022/04/01 01:12:11;;;;;;;4.43;1.40;;;0.80;99.90;;;;;;5091389;28;20044;-70
2022/04/01 01:14:39;;;;;;;2.55;1.00;;;0.70;99.90;;;;;;5090896;28;20036;-70
2022/04/01 01:17:10;;;;;;;1.10;0.90;;;0.80;99.90;;;;;;5073205;28;20375;-70
2022/04/01 01:19:36;;;;;;;3.90;1.10;;;0.80;99.90;;;;;;5090928;28;20544;-70
2022/04/01 01:22:02;;;;;;;1.30;1.13;;;0.80;99.90;;;;;;5091339;28;20051;-70
2022/04/01 01:24:30;;;;;;;3.45;1.23;;;0.90;99.90;;;;;;5091710;28;20048;-70
2022/04/01 01:26:57;;;;;;;4.18;1.20;;;0.90;99.90;;;;;;5090558;28;20040;-70
2022/04/01 01:29:26;;;;;;;4.40;1.52;;;0.90;99.90;;;;;;5073477;28;20048;-70
2022/04/01 01:31:54;;;;;;;2.22;1.38;;;0.90;99.90;;;;;;5073435;28;20490;-70
2022/04/01 01:34:20;;;;;;;2.40;1.25;;;0.90;99.90;;;;;;5090841;28;20043;-70
2022/04/01 01:36:46;;;;;;;2.75;1.08;;;1.00;99.90;;;;;;5091542;28;20051;-70
2022/04/01 01:39:12;;;;;;;4.90;1.20;;;1.00;99.90;;;;;;5091232;28;20048;-70
2022/04/01 01:41:37;;;;;;;2.35;1.00;;;1.00;99.90;;;;;;5090543;28;20036;-70
2022/04/01 01:44:04;;;;;;;2.30;1.20;;;1.00;99.90;;;;;;5090951;28;20117;-70
2022/04/01 01:46:30;;;;;;;3.88;2.10;;;1.00;99.90;;;;;;5091404;28;20048;-70
2022/04/01 01:48:56;;;;;;;3.67;1.17;;;1.00;99.90;;;;;;5072168;28;20052;-70
2022/04/01 01:56:50;;;;;;;4.20;1.65;;;1.10;99.90;;;;;;5090750;28;20040;-70
2022/04/01 01:59:16;;;;;;;6.05;1.25;;;1.30;99.90;;;;;;5091473;28;20089;-70
2022/04/01 02:01:42;;;;;;;7.28;1.30;;;1.00;99.90;;;;;;5083910;28;20127;-70
2022/04/01 02:04:09;;;;;;;1.50;0.90;;;1.00;99.90;;;;;;5072675;28;20056;-70
2022/04/01 02:06:35;;;;;;;4.78;2.10;;;1.00;99.90;;;;;;5102324;28;20083;-69
2022/04/01 02:09:02;;;;;;;2.60;1.10;;;1.10;99.90;;;;;;5071768;28;20079;-70
2022/04/01 02:11:28;;;;;;;2.50;1.02;;;1.00;99.90;;;;;;5084356;28;20405;-70
2022/04/01 02:13:54;;;;;;;3.58;1.38;;;1.00;99.90;;;;;;5115256;28;20087;-70
2022/04/01 02:16:21;;;;;;;3.72;1.40;;;1.10;99.90;;;;;;5096309;28;20090;-70
2022/04/01 02:18:48;;;;;;;1.52;0.80;;;1.10;99.90;;;;;;5115121;28;20036;-70
2022/04/01 02:21:15;;;;;;;3.70;1.27;;;1.30;99.90;;;;;;5096561;28;20104;-69
2022/04/01 02:23:44;;;;;;;3.75;1.48;;;1.10;99.90;;;;;;5114125;28;20059;-69
2022/04/01 02:26:12;;;;;;;5.80;2.25;;;1.00;99.90;;;;;;5096273;28;20440;-69
2022/04/01 02:28:38;;;;;;;5.60;1.75;;;1.10;99.90;;;;;;5096292;28;20052;-69
2022/04/01 02:31:05;;;;;;;10.93;1.85;;;1.10;99.90;;;;;;5095800;28;20058;-69
2022/04/01 02:33:31;;;;;;;4.25;1.85;;;1.10;99.90;;;;;;5096218;28;20406;-69
2022/04/01 02:35:58;;;;;;;3.53;1.10;;;1.10;99.90;;;;;;5114231;28;20047;-68
2022/04/01 02:38:28;;;;;;;6.53;1.00;;;1.10;99.90;;;;;;5114186;28;20096;-69
2022/04/01 02:40:55;;;;;;;6.60;1.20;;;1.10;99.90;;;;;;5096022;28;20486;-68
2022/04/01 02:43:21;;;;;;;4.30;1.10;;;1.00;99.90;;;;;;5113740;28;20051;-69
2022/04/01 02:45:48;;;;;;;2.38;0.95;;;1.10;99.90;;;;;;5113758;28;20044;-69
2022/04/01 02:48:15;;;;;;;3.22;1.30;;;1.10;99.90;;;;;;5095904;28;20064;-69
2022/04/01 02:50:41;;;;;;;1.70;0.80;;;1.10;99.90;;;;;;5093931;28;20039;-68
2022/04/01 02:53:06;;;;;;;2.72;1.00;;;1.10;99.90;;;;;;5085250;28;20181;-68
2022/04/01 02:55:32;;;;;;;3.63;1.27;;;1.10;99.90;;;;;;5108582;28;20126;-68
2022/04/01 02:57:59;;;;;;;4.22;2.08;;;1.20;99.90;;;;;;5075327;28;20385;-68
2022/04/01 03:00:24;;;;;;;9.85;1.45;;;1.00;99.90;;;;;;5075470;28;20056;-68
2022/04/01 03:02:50;;;;;;;1.23;0.93;;;1.10;99.90;;;;;;5075664;28;20036;-68
2022/04/01 03:05:17;;;;;;;2.10;1.08;;;1.10;99.90;;;;;;5092572;28;20062;-68
2022/04/01 03:07:44;;;;;;;3.20;1.27;;;1.00;99.90;;;;;;5093851;28;20044;-69
2022/04/01 03:10:10;;;;;;;4.13;1.33;;;1.10;99.90;;;;;;5093322;28;20101;-69
2022/04/01 03:12:36;;;;;;;9.48;1.85;;;1.00;99.90;;;;;;5092887;28;20043;-68
2022/04/01 03:15:02;;;;;;;5.85;1.10;;;1.10;99.90;;;;;;5075146;28;20044;-68
2022/04/01 03:17:29;;;;;;;1.50;0.90;;;1.60;99.90;;;;;;5093468;28;20037;-68
2022/04/01 03:19:55;;;;;;;2.63;1.08;;;1.00;99.90;;;;;;5074451;28;20078;-69
2022/04/01 03:22:20;;;;;;;2.33;1.05;;;1.10;99.90;;;;;;5075005;28;20044;-69
2022/04/01 03:24:49;;;;;;;2.83;1.27;;;1.10;99.90;;;;;;5093437;28;20055;-69
2022/04/01 03:27:15;;;;;;;4.00;1.30;;;1.10;99.90;;;;;;5080680;28;20527;-69
2022/04/01 03:29:40;;;;;;;2.00;0.90;;;1.10;99.90;;;;;;5079984;28;20127;-69
2022/04/01 03:32:07;;;;;;;4.65;1.60;;;1.10;99.90;;;;;;5084581;28;20048;-69
2022/04/01 03:34:32;;;;;;;2.42;1.35;;;1.10;99.90;;;;;;5074337;28;20080;-69
2022/04/01 03:36:58;;;;;;;4.30;0.88;;;1.10;99.90;;;;;;5092806;28;20083;-68
2022/04/01 03:39:24;;;;;;;4.20;1.15;;;1.30;99.90;;;;;;5093246;28;20108;-68
2022/04/01 03:41:50;;;;;;;3.10;1.52;;;1.10;99.90;;;;;;5074115;28;20048;-69
2022/04/01 03:44:18;;;;;;;1.60;0.90;;;1.10;99.90;;;;;;5092475;28;20399;-68
2022/04/01 03:46:47;;;;;;;1.77;0.88;;;1.20;99.90;;;;;;5092909;28;20043;-69
2022/04/01 03:49:21;;;;;;;2.35;1.10;;;1.10;99.90;;;;;;5073644;28;20056;-68
2022/04/01 03:51:49;;;;;;;3.05;1.15;;;1.20;99.90;;;;;;5074609;28;20048;-68
2022/04/01 03:54:16;;;;;;;5.38;1.27;;;1.10;99.90;;;;;;5092085;28;20040;-69
2022/04/01 03:56:44;;;;;;;4.85;1.38;;;1.10;99.90;;;;;;5092726;28;20118;-68
2022/04/01 03:59:12;;;;;;;3.40;1.10;;;1.40;99.90;;;;;;5074226;28;20052;-69
2022/04/01 04:01:39;;;;;;;5.15;0.80;;;1.10;99.90;;;;;;5091972;28;20048;-68
2022/04/01 04:04:05;;;;;;;3.28;1.13;;;1.20;99.90;;;;;;5087556;28;20047;-69
2022/04/01 04:06:34;;;;;;;4.55;1.10;;;1.20;99.90;;;;;;5108453;28;20180;-69
2022/04/01 04:09:02;;;;;;;2.33;0.77;;;1.20;99.90;;;;;;5111869;28;20036;-69
2022/04/01 04:11:37;;;;;;;5.68;1.05;;;1.40;99.90;;;;;;5108193;28;20115;-69
2022/04/01 04:14:04;;;;;;;3.63;0.90;;;1.20;99.90;;;;;;5092025;28;20059;-68
2022/04/01 04:16:46;;;;;;;3.67;1.25;;;1.20;99.90;;;;;;5073327;28;20135;-68
2022/04/01 04:19:45;;;;;;;4.63;1.02;;;1.40;99.90;;;;;;5074086;28;20055;-68
2022/04/01 04:22:15;;;;;;;2.25;1.45;;;1.20;99.90;;;;;;5073645;28;20044;-68
2022/04/01 04:25:04;;;;;;;3.70;1.65;;;1.30;99.90;;;;;;5100660;28;20430;-67
2022/04/01 04:27:32;;;;;;;6.05;1.30;;;1.30;99.90;;;;;;5092335;28;20115;-68
2022/04/01 04:30:08;;;;;;;2.78;1.27;;;1.30;99.90;;;;;;5073140;28;20055;-68
2022/04/01 04:32:41;;;;;;;6.53;1.65;;;1.30;99.90;;;;;;5073410;28;20125;-68
2022/04/01 04:35:09;;;;;;;3.95;1.23;;;1.30;99.90;;;;;;5096134;27;20111;-68
2022/04/01 04:37:37;;;;;;;10.20;1.52;;;1.30;99.90;;;;;;5099493;28;20082;-68
2022/04/01 04:40:04;;;;;;;6.32;1.50;;;1.30;99.90;;;;;;5101570;28;20611;-68
2022/04/01 04:42:32;;;;;;;4.82;1.25;;;1.30;99.90;;;;;;5075553;28;20123;-68
2022/04/01 04:44:58;;;;;;;4.18;1.38;;;1.30;99.90;;;;;;5072594;28;20047;-68
2022/04/01 04:47:32;;;;;;;2.92;1.20;;;1.30;99.90;;;;;;5073825;28;20174;-68
2022/04/01 04:49:58;;;;;;;3.83;1.20;;;1.30;99.90;;;;;;5073166;28;20083;-68
2022/04/01 04:52:30;;;;;;;7.35;1.50;;;1.50;99.90;;;;;;5073060;28;20068;-68
2022/04/01 04:54:56;;;;;;;4.60;1.10;;;1.30;99.90;;;;;;5073621;28;20127;-68
2022/04/01 04:57:22;;;;;;;1.70;1.40;;;1.30;99.90;;;;;;5073804;28;20112;-68
2022/04/01 04:59:49;;;;;;;8.60;1.65;;;1.30;99.90;;;;;;5076248;28;20486;-69
2022/04/01 05:02:22;;;;;;;2.40;1.40;;;1.30;99.90;;;;;;5100550;28;20044;-71
2022/04/01 05:04:47;;;;;;;;;;;1.30;99.90;;;;;;5074128;28;20070;-69
2022/04/01 05:07:34;;;;;;;4.85;1.45;;;1.30;99.90;;;;;;5073303;28;20461;-69
2022/04/01 05:10:16;;;;;;;7.38;2.30;;;1.30;99.90;;;;;;5091414;28;20394;-69
2022/04/01 05:13:04;;;;;;;3.63;1.50;;;1.40;99.90;;;;;;5072748;28;20082;-68
2022/04/01 05:15:36;;;;;;;2.35;1.20;;;1.40;99.90;;;;;;5073722;28;20048;-68
2022/04/01 05:18:12;;;;;;;3.50;1.15;;;1.40;99.90;;;;;;5073141;28;20558;-68
2022/04/01 05:20:45;;;;;;;5.32;1.25;;;1.30;99.90;;;;;;5090803;28;20063;-70
2022/04/01 05:23:18;;;;;;;5.95;1.60;;;1.40;99.90;;;;;;5073221;28;20403;-68
2022/04/01 05:25:56;;;;;;;5.28;1.40;;;1.40;99.90;;;;;;5090759;28;20055;-68
2022/04/01 05:28:25;;;;;;;3.45;1.10;;;1.40;99.90;;;;;;5073637;28;20044;-68
2022/04/01 05:31:18;;;;;;;2.45;1.10;;;1.40;99.90;;;;;;5081820;28;20052;-68
2022/04/01 05:33:50;;;;;;;6.28;2.08;;;1.50;99.90;;;;;;5074577;28;20071;-70
2022/04/01 05:36:17;;;;;;;7.40;2.40;;;1.40;99.90;;;;;;5100709;28;20040;-70
2022/04/01 05:38:43;;;;;;;3.92;1.13;;;1.60;99.90;;;;;;5091452;28;20047;-70
2022/04/01 05:41:10;;;;;;;4.65;0.90;;;1.50;99.90;;;;;;5078817;28;20044;-69
2022/04/01 05:43:38;;;;;;;3.08;1.20;;;1.50;99.90;;;;;;5096643;28;20090;-69
2022/04/01 05:46:04;;;;;;;2.20;1.23;;;1.50;99.90;;;;;;5095043;28;20131;-70
2022/04/01 05:48:32;;;;;;;2.45;1.10;;;1.50;99.90;;;;;;5094327;28;20115;-68
2022/04/01 05:50:58;;;;;;;1.90;0.80;;;1.50;99.90;;;;;;5076470;28;20503;-68
2022/04/01 05:53:25;;;;;;;7.22;1.45;;;1.50;99.90;;;;;;5076853;28;20059;-69
2022/04/01 05:55:53;;;;;;;5.55;1.98;;;1.50;99.90;;;;;;5086099;28;20078;-69
2022/04/01 05:58:19;;;;;;;3.75;1.95;;;1.50;99.90;;;;;;5078452;28;20082;-69
2022/04/01 06:01:07;;;;;;;2.00;0.93;;;1.70;99.90;;;;;;5076978;28;20462;-69
2022/04/01 06:03:44;;;;;;;2.80;1.65;;;1.50;99.90;;;;;;5077019;28;20550;-70
2022/04/01 06:06:16;;;;;;;2.55;1.05;;;1.50;99.90;;;;;;5094488;28;20062;-69
2022/04/01 06:08:56;;;;;;;2.95;1.45;;;1.70;99.90;;;;;;5075738;28;20086;-69
2022/04/01 06:11:59;;;;;;;2.60;1.13;;;1.50;99.90;;;;;;5097751;28;20043;-70
2022/04/01 06:14:57;;;;;;;2.75;1.23;;;1.60;99.90;;;;;;5087909;28;20393;-70
2022/04/01 06:17:41;;;;;;;3.45;0.82;;;1.50;99.90;;;;;;5096865;28;20040;-69
2022/04/01 06:20:08;;;;;;;2.33;1.35;;;1.60;99.90;;;;;;5114596;28;20043;-69
2022/04/01 06:22:42;;;;;;;2.80;1.00;;;1.60;99.90;;;;;;5114191;28;20439;-70
2022/04/01 06:25:15;;;;;;;2.03;1.17;;;1.60;99.90;;;;;;5096029;28;20066;-70
2022/04/01 06:27:59;;;;;;;2.25;1.35;;;1.60;99.90;;;;;;5096333;28;20486;-70
2022/04/01 06:30:25;;;;;;;3.17;0.95;;;1.70;99.90;;;;;;5095528;28;20103;-69
2022/04/01 06:33:11;;;;;;;9.77;1.30;;;1.70;99.90;;;;;;5114750;28;20027;-69
2022/04/01 06:35:48;;;;;;;3.70;1.10;;;1.70;99.90;;;;;;5096286;28;20065;-69
2022/04/01 06:38:28;;;;;;;4.50;1.23;;;1.70;99.90;;;;;;5108163;28;20040;-70
2022/04/01 06:40:58;;;;;;;3.85;1.75;;;1.80;99.90;;;;;;5099442;28;20048;-69
2022/04/01 06:43:25;;;;;;;4.30;1.50;;;1.80;99.90;;;;;;5075473;28;20052;-69
2022/04/01 06:45:50;;;;;;;1.83;0.93;;;1.80;99.90;;;;;;5077169;28;20123;-68
2022/04/01 06:48:16;;;;;;;3.35;1.45;;;1.80;99.90;;;;;;5100796;28;20055;-69
2022/04/01 06:50:49;;;;;;;2.28;1.33;;;1.80;99.90;;;;;;5113789;28;20044;-69
2022/04/01 06:53:15;;;;;;;2.25;0.88;;;1.90;99.90;;;;;;5108484;28;20149;-69
2022/04/01 06:55:41;;;;;;;2.28;1.20;;;1.90;99.90;;;;;;5075159;28;20125;-69
2022/04/01 06:58:11;;;;;;;4.45;0.93;;;1.90;99.90;;;;;;5092982;28;20047;-69
2022/04/01 07:00:37;;;;;;;2.72;1.40;;;2.00;99.90;;;;;;5095702;28;20047;-69
2022/04/01 07:03:03;;;;;;;3.53;0.90;;;2.00;99.90;;;;;;5081989;28;20390;-70
2022/04/01 07:05:29;;;;;;;1.83;1.40;;;2.00;99.90;;;;;;5093951;28;20052;-69
2022/04/01 07:07:54;;;;;;;2.20;1.50;;;2.00;99.90;;;;;;5106539;28;20051;-69
2022/04/01 07:10:20;;;;;;;1.75;1.08;;;2.00;99.90;;;;;;5079892;28;20043;-69
2022/04/01 07:12:45;;;;;;;5.68;1.23;;;2.10;99.90;;;;;;5098737;28;20043;-69
2022/04/01 07:15:11;;;;;;;2.47;1.75;;;2.30;99.90;;;;;;5102709;28;20058;-70
2022/04/01 07:17:37;;;;;;;2.55;0.90;;;2.20;99.90;;;;;;5079123;28;20048;-69
2022/04/01 07:20:03;;;;;;;2.20;1.48;;;2.20;99.90;;;;;;5077606;28;20051;-69
2022/04/01 07:22:31;;;;;;;4.28;1.25;;;2.20;99.90;;;;;;5078524;28;20040;-69
2022/04/01 07:24:57;;;;;;;2.47;1.10;;;2.30;99.90;;;;;;5081616;28;20080;-70
2022/04/01 07:27:22;;;;;;;3.65;1.08;;;2.30;99.90;;;;;;5081303;28;20068;-70
2022/04/01 07:29:48;;;;;;;2.70;0.93;;;2.30;99.90;;;;;;5082321;28;20055;-69
2022/04/01 07:32:29;;;;;;;4.03;1.30;;;2.30;99.90;;;;;;5076538;28;20048;-67
2022/04/01 07:34:55;;;;;;;1.45;0.90;;;2.60;99.90;;;;;;5103915;28;20039;-66
2022/04/01 07:37:23;;;;;;;2.60;0.93;;;2.40;99.90;;;;;;5111761;28;20084;-70
2022/04/01 07:39:51;;;;;;;6.03;1.75;;;2.50;99.90;;;;;;5100177;28;20047;-70
2022/04/01 07:42:18;;;;;;;2.15;0.85;;;2.50;99.90;;;;;;5100074;28;20491;-67
2022/04/01 07:44:44;;;;;;;1.95;1.13;;;2.50;99.90;;;;;;5089759;28;20043;-70
2022/04/01 07:47:09;;;;;;;1.65;1.13;;;2.60;99.90;;;;;;5079582;28;20056;-70
2022/04/01 07:49:40;;;;;;;2.50;1.10;;;2.60;99.90;;;;;;5084670;28;20055;-69
2022/04/01 07:52:08;;;;;;;3.42;0.90;;;2.60;99.90;;;;;;5079134;28;20056;-68
2022/04/01 07:54:35;;;;;;;3.60;1.38;;;2.70;99.90;;;;;;5077424;28;20048;-68
2022/04/01 07:57:01;;;;;;;2.10;0.80;;;2.70;99.90;;;;;;5070905;28;20053;-69
2022/04/01 07:59:27;;;;;;;1.58;1.00;;;2.60;99.90;;;;;;5072100;28;20044;-69
2022/04/01 08:01:52;;;;;;;2.30;1.42;;;2.70;99.90;;;;;;5073051;28;20036;-68
2022/04/01 08:04:18;;;;;;;4.40;1.42;;;2.80;99.90;;;;;;5082082;28;20052;-69
2022/04/01 08:06:44;;;;;;;3.10;1.00;;;2.80;99.90;;;;;;5084820;28;20045;-69
2022/04/01 08:09:09;;;;;;;0.95;0.85;;;2.70;99.90;;;;;;5079303;28;20052;-68
2022/04/01 08:11:35;;;;;;;0.82;0.82;;;2.70;99.90;;;;;;5086531;28;20118;-69
2022/04/01 08:14:00;;;;;;;2.58;1.00;;;2.70;99.90;;;;;;5089222;28;20091;-69
2022/04/01 08:16:26;;;;;;;1.67;0.88;;;2.70;99.90;;;;;;5079967;28;20053;-69
2022/04/01 08:18:52;;;;;;;3.85;1.15;;;2.70;99.90;;;;;;5078760;28;20052;-68
2022/04/01 08:21:17;;;;;;;1.58;0.77;;;2.70;99.90;;;;;;5079216;28;20037;-69
2022/04/01 08:23:44;;;;;;;1.42;1.05;;;2.70;99.90;;;;;;5069552;28;20050;-69
2022/04/01 08:26:19;;;;;;;2.17;1.20;;;2.70;99.90;;;;;;5084068;28;20087;-69
2022/04/01 08:28:44;;;;;;;1.85;1.10;;;2.70;99.90;;;;;;5086353;28;20442;-69
2022/04/01 08:31:10;;;;;;;2.28;0.85;;;2.70;99.90;;;;;;5088924;28;20569;-68
2022/04/01 08:33:36;;;;;;;1.13;0.85;;;2.70;99.90;;;;;;5097007;28;20389;-69
2022/04/01 08:36:03;;;;;;;1.75;0.90;;;2.80;99.90;;;;;;5086438;28;20048;-69
2022/04/01 08:38:29;;;;;;;2.30;1.08;;;2.80;99.90;;;;;;5094018;28;20449;-67
2022/04/01 08:40:55;;;;;;;1.27;0.93;;;2.80;99.90;;;;;;5081867;28;20131;-67
2022/04/01 08:43:31;;;;;;;4.18;1.08;;;2.80;99.90;;;;;;5069704;28;20106;-67
2022/04/01 08:46:00;;;;;;;4.82;0.85;;;2.80;99.90;;;;;;5070916;28;20133;-71
2022/04/01 08:48:27;;;;;;;2.35;1.33;;;2.80;99.90;;;;;;5081087;28;20048;-72
2022/04/01 08:50:53;;;;;;;2.22;1.10;;;2.90;99.90;;;;;;5084677;28;20045;-70
2022/04/01 08:53:19;;;;;;;2.38;0.80;;;3.60;99.90;;;;;;5082124;28;20526;-70
2022/04/01 08:55:52;;;;;;;1.48;1.00;;;3.00;99.90;;;;;;5094278;28;20513;-70
2022/04/01 08:58:23;;;;;;;3.17;1.10;;;3.10;99.90;;;;;;5089359;28;20063;-70
2022/04/01 09:00:50;;;;;;;2.38;0.82;;;3.10;99.90;;;;;;5088136;28;20520;-69
2022/04/01 09:03:18;;;;;;;3.25;1.30;;;3.20;99.90;;;;;;5080837;28;20052;-70
2022/04/01 09:05:52;;;;;;;1.52;0.90;;;3.30;99.90;;;;;;5077389;28;20649;-70
2022/04/01 09:08:25;;;;;;;1.50;1.20;;;3.30;99.90;;;;;;5069557;28;20487;-68
2022/04/01 09:11:02;;;;;;;3.53;1.42;;;3.40;99.90;;;;;;5069155;28;20384;-70
2022/04/01 09:13:50;;;;;;;1.52;1.30;;;3.40;99.90;;;;;;5082373;28;20091;-70
2022/04/01 09:16:33;;;;;;;2.55;1.15;;;3.40;99.90;;;;;;5090689;28;20046;-70
2022/04/01 09:19:03;;;;;;;3.95;1.05;;;3.60;99.90;;;;;;5086766;28;20442;-69
2022/04/01 09:21:31;;;;;;;1.42;0.88;;;3.60;99.90;;;;;;5087360;28;20043;-70
2022/04/01 09:23:58;;;;;;;3.25;1.30;;;3.60;99.90;;;;;;5081641;28;20048;-70
2022/04/01 09:26:35;;;;;;;2.13;1.42;;;3.70;99.90;;;;;;5086849;28;20549;-70
2022/04/01 09:29:02;;;;;;;2.70;1.23;;;3.70;99.90;;;;;;5076458;28;20048;-69
2022/04/01 09:31:33;;;;;;;1.50;1.40;;;3.80;99.90;;;;;;5092886;28;20066;-69
2022/04/01 09:34:01;;;;;;;3.35;1.52;;;3.80;99.90;;;;;;5084919;28;20044;-70
2022/04/01 09:36:33;;;;;;;1.27;0.98;;;3.80;99.90;;;;;;5073070;28;20091;-70
2022/04/01 09:39:03;;;;;;;2.50;1.35;;;3.80;99.90;;;;;;5075731;28;20123;-70
2022/04/01 09:41:35;;;;;;;2.65;1.23;;;3.90;99.90;;;;;;5077101;28;20102;-70
2022/04/01 09:44:21;;;;;;;2.25;1.40;;;3.90;99.90;;;;;;5088188;28;20044;-69
2022/04/01 09:46:59;;;;;;;3.20;1.63;;;4.00;99.90;;;;;;5073722;28;20413;-70
2022/04/01 09:49:45;;;;;;;1.77;1.17;;;4.00;99.90;;;;;;5097175;28;20424;-72
2022/04/01 09:52:20;;;;;;;1.67;1.23;;;4.00;99.90;;;;;;5092279;28;20080;-72
2022/04/01 09:54:47;;;;;;;2.72;1.05;;;4.00;99.90;;;;;;5090444;27;20046;-73
2022/04/01 09:57:18;;;;;;;1.63;0.80;;;4.10;99.90;;;;;;5123513;27;20039;-73
2022/04/01 09:59:44;;;;;;;3.47;1.23;;;4.10;99.90;;;;;;5114514;28;20046;-74
2022/04/01 10:02:10;;;;;;;2.97;1.38;;;4.20;99.90;;;;;;5095311;28;20127;-73
2022/04/01 10:04:36;;;;;;;3.33;1.05;;;4.30;99.90;;;;;;5106990;28;20114;-72
2022/04/01 10:07:03;;;;;;;1.92;1.50;;;4.30;99.90;;;;;;5083172;28;20040;-73
2022/04/01 10:09:30;;;;;;;3.50;1.40;;;4.30;99.90;;;;;;5099191;28;20044;-72
2022/04/01 10:12:00;;;;;;;4.35;1.33;;;4.40;99.90;;;;;;5105897;28;20086;-72
2022/04/01 10:14:29;;;;;;;2.67;1.20;;;4.50;99.90;;;;;;5099800;27;20101;-72
2022/04/01 10:16:56;;;;;;;3.35;1.30;;;4.60;99.90;;;;;;5085776;28;20044;-72
2022/04/01 10:19:32;;;;;;;2.58;0.80;;;4.60;99.90;;;;;;5096128;28;20490;-72
2022/04/01 10:21:58;;;;;;;1.58;0.90;;;4.70;99.90;;;;;;5100792;28;20063;-72
2022/04/01 10:24:34;;;;;;;1.92;0.70;;;4.80;99.90;;;;;;5103702;28;20544;-72
2022/04/01 10:27:23;;;;;;;1.83;0.93;;;4.90;99.90;;;;;;5105319;28;20097;-72
2022/04/01 10:29:49;;;;;;;3.67;1.00;;;5.00;99.90;;;;;;5075316;28;20064;-72
2022/04/01 10:32:27;;;;;;;1.30;0.98;;;5.00;99.90;;;;;;5092541;28;20051;-72
2022/04/01 10:34:56;;;;;;;2.67;0.80;;;5.00;99.90;;;;;;5093855;28;20044;-72
2022/04/01 10:37:25;;;;;;;3.63;0.90;;;5.10;99.90;;;;;;5074979;28;20044;-72
2022/04/01 10:39:57;;;;;;;2.17;0.88;;;5.10;99.90;;;;;;5093487;28;20479;-72
2022/04/01 10:42:31;;;;;;;1.35;0.80;;;5.20;99.90;;;;;;5092874;28;20044;-72
2022/04/01 10:45:01;;;;;;;1.20;0.85;;;5.20;99.90;;;;;;5092304;28;20032;-72
2022/04/01 10:53:38;;;;;;;2.20;0.95;;;5.30;99.90;;;;;;5093497;28;20402;-72
2022/04/01 10:56:25;;;;;;;1.27;0.70;;;5.40;99.90;;;;;;5079319;28;20487;-71
2022/04/01 10:59:24;;;;;;;1.02;0.63;;;5.50;99.90;;;;;;5089809;28;20054;-76
2022/04/01 11:01:52;;;;;;;1.88;0.68;;;5.40;98.40;;;;;;5042618;28;20091;-77
2022/04/01 11:04:18;;;;;;;4.53;1.05;;;5.50;99.90;;;;;;5073920;28;20486;-76
2022/04/01 11:07:06;;;;;;;1.33;0.45;;;5.50;99.20;;;;;;5075710;28;20105;-72
2022/04/01 11:09:56;;;;;;;1.73;0.50;;;5.50;99.10;;;;;;5075298;28;20055;-72
2022/04/01 11:12:38;;;;;;;3.90;0.85;;;5.50;99.70;;;;;;5074053;28;20060;-72
2022/04/01 11:15:07;;;;;;;1.05;0.40;;;5.60;99.90;;;;;;5097663;28;20040;-73
2022/04/01 11:17:36;;;;;;;1.05;0.60;;;5.60;97.40;;;;;;5084700;28;20093;-76
2022/04/01 11:20:13;;;;;;;1.17;0.90;;;5.60;99.90;;;;;;5108619;28;20065;-76
2022/04/01 11:22:53;;;;;;;1.90;0.70;;;5.60;95.30;;;;;;5084493;28;20409;-76
2022/04/01 11:25:24;;;;;;;0.85;0.60;;;5.60;93.10;;;;;;5083408;28;20466;-76
2022/04/01 11:27:56;;;;;;;2.47;1.00;;;5.50;93.10;;;;;;5075167;28;20127;-75
2022/04/01 11:30:24;;;;;;;2.97;0.70;;;5.50;92.30;;;;;;5093243;28;20048;-76
2022/04/01 11:32:55;;;;;;;2.80;0.88;;;5.50;92.40;;;;;;5076209;28;20043;-76
2022/04/01 11:35:24;;;;;;;4.57;1.17;;;5.50;92.50;;;;;;5084562;28;20516;-75
2022/04/01 11:37:49;;;;;;;2.78;1.10;;;5.50;92.00;;;;;;5105151;28;20088;-75
2022/04/01 11:40:25;;;;;;;3.42;0.60;;;5.40;92.70;;;;;;5112331;28;20556;-76
2022/04/01 11:43:08;;;;;;;1.73;0.88;;;5.50;93.50;;;;;;5100224;28;20047;-75
2022/04/01 11:45:44;;;;;;;2.55;1.08;;;5.40;91.70;;;;;;5078265;28;20070;-76
2022/04/01 11:48:17;;;;;;;2.53;0.95;;;5.40;93.60;;;;;;5085857;28;20628;-76
2022/04/01 11:50:48;;;;;;;3.63;1.15;;;5.40;94.70;;;;;;5091919;28;20051;-76
2022/04/01 11:53:26;;;;;;;1.88;1.20;;;5.40;94.40;;;;;;5093607;28;20036;-75
2022/04/01 11:55:53;;;;;;;3.83;1.00;;;5.30;91.90;;;;;;5078429;28;20608;-76
2022/04/01 11:58:19;;;;;;;2.33;0.85;;;5.30;93.20;;;;;;5081768;28;20036;-76
2022/04/01 12:00:45;;;;;;;2.28;1.45;;;5.30;93.20;;;;;;5109153;28;20387;-76
2022/04/01 12:03:12;;;;;;;2.65;0.73;;;5.20;94.60;;;;;;5099058;28;20074;-76
2022/04/01 12:05:41;;;;;;;2.78;0.60;;;5.30;95.80;;;;;;5104574;28;20047;-76
2022/04/01 12:10:53;;;;;;;3.17;0.80;;;5.30;95.50;;;;;;5103993;28;20044;-76
2022/04/01 12:13:18;;;;;;;2.40;1.13;;;5.30;96.50;;;;;;5074463;28;20051;-76
2022/04/01 12:15:48;;;;;;;1.33;0.90;;;5.30;97.10;;;;;;5101132;28;20048;-76
2022/04/01 12:18:20;;;;;;;2.60;0.90;;;5.30;97.10;;;;;;5094292;28;20657;-76
2022/04/01 12:20:51;;;;;;;6.10;1.83;;;5.30;97.70;;;;;;5093528;28;20050;-75
2022/04/01 12:23:20;;;;;;;0.90;0.70;;;5.30;98.50;;;;;;5094178;28;20035;-76
2022/04/01 12:25:48;;;;;;;0.80;0.70;;;5.30;97.70;;;;;;5077958;28;20054;-76
2022/04/01 12:28:16;;;;;;;2.53;0.60;;;5.30;96.80;;;;;;5073253;28;20044;-76
2022/04/01 12:30:54;;;;;;;1.58;0.70;;;5.30;98.10;;;;;;5100176;28;20043;-76
2022/04/01 12:33:25;;;;;;;1.55;0.90;;;5.40;99.30;;;;;;5111327;28;20059;-76
2022/04/01 12:36:05;;;;;;;1.20;1.00;;;5.60;98.30;;;;;;5093580;28;20058;-76
2022/04/01 12:38:33;;;;;;;3.03;1.42;;;5.70;96.00;;;;;;5102815;28;20044;-76
2022/04/01 12:41:24;;;;;;;3.33;1.00;;;5.60;92.90;;;;;;5093343;28;20044;-75
2022/04/01 12:43:52;;;;;;;8.75;4.28;;;5.50;95.00;;;;;;5111104;28;20062;-75
2022/04/01 12:46:30;;;;;;;5.60;3.10;;;5.50;94.90;;;;;;5111967;28;20436;-76
2022/04/01 12:48:58;;;;;;;2.67;2.47;;;5.60;96.10;;;;;;5089498;28;20095;-76
2022/04/01 12:51:28;;;;;;;4.10;2.28;;;5.70;95.50;;;;;;5092254;28;20043;-76
2022/04/01 12:54:05;;;;;;;1.83;1.20;;;5.70;97.10;;;;;;5091473;28;20043;-76
2022/04/01 12:56:35;;;;;;;5.78;1.20;;;5.70;95.00;;;;;;5090134;28;20044;-76
2022/04/01 12:59:05;;;;;;;3.42;1.15;;;5.60;94.60;;;;;;5089836;28;20043;-76
2022/04/01 13:01:32;;;;;;;2.10;1.02;;;5.60;93.90;;;;;;5085037;28;20123;-76
2022/04/01 13:03:59;;;;;;;2.33;1.17;;;5.60;96.40;;;;;;5082665;28;20044;-76
2022/04/01 13:06:26;;;;;;;2.42;1.20;;;5.50;96.70;;;;;;5069865;28;20122;-76
2022/04/01 13:09:03;;;;;;;6.07;1.00;;;5.50;97.10;;;;;;5070194;28;20059;-76
2022/04/01 13:11:44;;;;;;;2.33;1.20;;;5.50;97.80;;;;;;5074184;28;20044;-76
2022/04/01 13:14:21;;;;;;;3.08;2.00;;;5.50;97.40;;;;;;5075039;28;20097;-75
2022/04/01 13:16:47;;;;;;;3.92;1.02;;;5.40;97.00;;;;;;5091275;28;20047;-75
2022/04/01 13:19:30;;;;;;;2.45;1.85;;;5.20;94.20;;;;;;5090754;28;20036;-76
2022/04/01 13:22:01;;;;;;;3.55;1.05;;;5.20;97.90;;;;;;5090003;28;20059;-76
2022/04/01 13:24:42;;;;;;;3.65;1.10;;;5.20;98.30;;;;;;5089290;28;20037;-76
2022/04/01 13:27:13;;;;;;;1.57;1.13;;;5.30;98.30;;;;;;5091500;28;20433;-76